This is the latest recevied weather packets stored in our database for station/object W5ITZ. If no packets are shown the sender has not sent any weather packets the latest 10 day(s).
| Time | Temp. | Humidity | Pressure | Rain* | Wind** | Luminosity | Snow |
|---|---|---|---|---|---|---|---|
| 1788031921 | 35° C | 55% | 1015.9 hPa | 0 mm | - | 968 W/m² | - |
| 1788031621 | 34.44° C | 56% | 1015.9 hPa | 0 mm | - | 1006 W/m² | - |
| 1788031315 | 35.56° C | 53% | 1015.9 hPa | 0 mm | - | 259 W/m² | - |
| 1788031014 | 35° C | 53% | 1016.1 hPa | 0 mm | - | 1040 W/m² | - |
| 1788030709 | 35° C | 54% | 1016.4 hPa | 0 mm | - | 991 W/m² | - |
| 1788030403 | 35° C | 54% | 1016.3 hPa | 0 mm | - | 1040 W/m² | - |
| 1788030099 | 35° C | 53% | 1016.4 hPa | 0 mm | - | 1066 W/m² | - |
| 1788029799 | 35° C | 52% | 1016.5 hPa | 0 mm | - | 1056 W/m² | - |
| 1788029494 | 35° C | 51% | 1016.4 hPa | 0 mm | - | 1106 W/m² | - |
| 1788029206 | 35° C | 51% | 1016.6 hPa | 0 mm | - | 1068 W/m² | - |
| 1788028893 | 35° C | 53% | 1016.6 hPa | 0 mm | - | 1096 W/m² | - |
| 1788028587 | 35° C | 52% | 1016.8 hPa | 0 mm | - | 1077 W/m² | - |
| 1788028282 | 35° C | 52% | 1016.9 hPa | 0 mm | - | 1110 W/m² | - |
| 1788027978 | 34.44° C | 53% | 1016.8 hPa | 0 mm | - | 801 W/m² | - |
| 1788027673 | 34.44° C | 54% | 1016.9 hPa | 0 mm | - | 368 W/m² | - |
| 1788027373 | 34.44° C | 54% | 1017.3 hPa | 0 mm | - | 258 W/m² | - |
| 1788027067 | 35° C | 52% | 1017 hPa | 0 mm | - | 1018 W/m² | - |
| 1788026761 | 35° C | 52% | 1017.1 hPa | 0 mm | - | 1058 W/m² | - |
| 1788026458 | 34.44° C | 55% | 1017.4 hPa | 0 mm | - | 1084 W/m² | - |
| 1788026157 | 33.89° C | 55% | 1017.2 hPa | 0 mm | - | 1116 W/m² | - |
| 1788025856 | 33.89° C | 58% | 1017.3 hPa | 0 mm | - | 241 W/m² | - |
| 1788025551 | 34.44° C | 54% | 1017.5 hPa | 0 mm | - | 298 W/m² | - |
| 1788025245 | 33.89° C | 56% | 1017.5 hPa | 0 mm | - | 1105 W/m² | - |
| 1788024940 | 33.33° C | 60% | 1017.3 hPa | 0 mm | - | 444 W/m² | - |
| 1788024636 | 33.33° C | 60% | 1017.3 hPa | 0 mm | - | 263 W/m² | - |
* Rain latest hour (hover to see other rain measurements)
** Current wind speed in m/s (hover to see current wind gust speed)